createdAt,value
2023-04-10T00:04:19.287Z,7.50
2023-04-10T00:06:49.439Z,5.90
2023-04-10T00:09:17.487Z,5.97
2023-04-10T00:11:45.580Z,5.13
2023-04-10T00:14:13.731Z,5.97
2023-04-10T00:16:41.651Z,5.82
2023-04-10T00:19:09.768Z,6.13
2023-04-10T00:21:37.767Z,6.32
2023-04-10T00:24:07.614Z,4.90
2023-04-10T00:26:36.145Z,5.25
2023-04-10T00:29:04.719Z,3.58
2023-04-10T00:31:33.064Z,3.28
2023-04-10T00:34:01.486Z,4.10
2023-04-10T00:36:30.350Z,4.63
2023-04-10T00:38:59.815Z,4.53
2023-04-10T00:41:30.275Z,3.00
2023-04-10T00:43:58.788Z,3.95
2023-04-10T00:46:27.942Z,3.58
2023-04-10T00:49:12.883Z,3.13
2023-04-10T00:51:49.790Z,3.00
2023-04-10T00:55:07.155Z,3.15
2023-04-10T00:58:15.883Z,3.03
2023-04-10T01:01:02.088Z,4.05
2023-04-10T01:04:02.480Z,3.38
2023-04-10T01:13:54.588Z,5.10
2023-04-10T01:29:10.108Z,4.50
2023-04-10T01:31:46.275Z,4.20
2023-04-10T01:34:20.308Z,4.78
2023-04-10T01:36:52.073Z,4.03
2023-04-10T03:04:33.194Z,5.00
2023-04-10T03:07:01.770Z,5.18
2023-04-10T03:09:30.136Z,4.30
2023-04-10T04:07:38.847Z,1.83
2023-04-10T04:10:34.078Z,2.95
2023-04-10T04:13:14.412Z,1.67
2023-04-10T04:15:56.683Z,1.20
2023-04-10T05:05:16.947Z,1.27
2023-04-10T05:07:58.189Z,1.42
2023-04-10T05:10:46.731Z,1.77
2023-04-10T05:13:43.945Z,1.30
2023-04-10T05:16:32.284Z,1.70
2023-04-10T05:19:23.364Z,3.90
2023-04-10T05:22:25.044Z,2.00
2023-04-10T05:25:07.554Z,3.55
2023-04-10T05:27:58.334Z,3.30
2023-04-10T05:30:45.036Z,15.88
2023-04-10T05:33:33.047Z,17.00
2023-04-10T05:36:19.697Z,13.80
2023-04-10T05:39:21.327Z,10.32
2023-04-10T05:45:15.547Z,4.25
2023-04-10T05:48:09.721Z,3.17
2023-04-10T05:50:59.266Z,4.72
2023-04-10T05:53:36.073Z,1.98
2023-04-10T05:56:23.778Z,2.70
2023-04-10T05:59:25.073Z,2.25
2023-04-10T06:02:19.824Z,5.85
2023-04-10T06:04:48.750Z,4.22
2023-04-10T06:07:17.602Z,4.93
2023-04-10T06:09:45.853Z,9.27
2023-04-10T06:12:16.956Z,7.03
2023-04-10T06:14:45.406Z,8.63
2023-04-10T06:17:15.951Z,8.75
2023-04-10T06:19:45.007Z,8.70
2023-04-10T06:22:13.006Z,9.02
2023-04-10T06:24:41.262Z,5.55
2023-04-10T06:27:09.463Z,7.00
2023-04-10T06:29:39.399Z,8.93
2023-04-10T06:32:07.662Z,5.50
2023-04-10T06:34:38.751Z,10.60
2023-04-10T06:37:09.709Z,6.07
2023-04-10T06:39:39.719Z,4.57
2023-04-10T06:42:07.899Z,6.15
2023-04-10T06:44:54.426Z,4.70
2023-04-10T06:47:22.958Z,1.90
2023-04-10T06:49:50.952Z,2.58
2023-04-10T06:52:20.080Z,1.33
2023-04-10T06:54:48.202Z,1.70
2023-04-10T06:57:16.360Z,2.15
2023-04-10T06:59:44.430Z,2.08
2023-04-10T07:02:14.145Z,2.20
2023-04-10T07:04:43.230Z,3.00
2023-04-10T07:07:13.601Z,4.05
2023-04-10T07:09:41.962Z,1.52
2023-04-10T07:12:10.049Z,1.60
2023-04-10T07:14:38.131Z,3.22
2023-04-10T07:17:06.351Z,1.85
2023-04-10T07:19:36.241Z,2.40
2023-04-10T07:22:04.477Z,1.10
2023-04-10T07:24:33.122Z,1.13
2023-04-10T07:27:01.927Z,0.95
2023-04-10T07:29:30.870Z,0.73
2023-04-10T07:32:00.532Z,1.00
2023-04-10T07:34:28.870Z,0.90
2023-04-10T07:36:58.343Z,2.25
2023-04-10T07:39:26.570Z,1.40
2023-04-10T07:41:55.375Z,0.70
2023-04-10T07:44:23.639Z,1.23
2023-04-10T07:46:52.590Z,0.88
2023-04-10T07:49:20.856Z,3.05
2023-04-10T07:51:49.012Z,0.60
2023-04-10T07:54:18.630Z,0.90
2023-04-10T07:56:46.676Z,2.35
2023-04-10T07:59:14.877Z,1.10
2023-04-10T08:01:42.906Z,3.63
2023-04-10T08:04:11.785Z,1.05
2023-04-10T08:06:39.889Z,3.17
2023-04-10T08:09:08.121Z,0.80
2023-04-10T08:11:38.727Z,0.88
2023-04-10T08:14:07.448Z,0.80
2023-04-10T08:16:36.652Z,1.90
2023-04-10T08:19:04.942Z,2.90
2023-04-10T08:21:33.235Z,1.55
2023-04-10T08:24:02.861Z,2.92
2023-04-10T08:26:31.194Z,1.45
2023-04-10T08:29:01.246Z,1.20
2023-04-10T08:31:30.178Z,1.13
2023-04-10T08:33:59.123Z,1.52
2023-04-10T08:36:27.918Z,1.10
2023-04-10T08:38:56.196Z,0.93
2023-04-10T08:41:24.261Z,2.33
2023-04-10T08:43:52.555Z,1.20
2023-04-10T08:46:26.887Z,0.73
2023-04-10T08:49:00.111Z,1.23
2023-04-10T08:51:33.258Z,1.02
2023-04-10T08:54:07.440Z,2.00
2023-04-10T08:56:38.439Z,1.80
2023-04-10T08:59:08.174Z,2.15
2023-04-10T09:01:40.360Z,1.80
2023-04-10T09:04:12.147Z,1.25
2023-04-10T09:06:41.001Z,1.65
2023-04-10T09:09:10.369Z,3.38
2023-04-10T09:12:01.498Z,2.55
2023-04-10T09:14:31.533Z,1.38
2023-04-10T09:17:18.561Z,1.30
2023-04-10T09:19:48.515Z,1.73
2023-04-10T09:22:17.416Z,2.03
2023-04-10T09:24:48.377Z,1.75
2023-04-10T09:27:34.025Z,1.80
2023-04-10T09:30:03.013Z,0.73
2023-04-10T09:32:41.423Z,0.68
2023-04-10T09:35:11.245Z,1.50
2023-04-10T09:37:43.556Z,1.30
2023-04-10T09:40:22.394Z,0.90
2023-04-10T09:42:51.361Z,2.70
2023-04-10T09:45:21.033Z,1.40
2023-04-10T09:48:07.123Z,1.00
2023-04-10T09:50:39.282Z,3.05
2023-04-10T09:53:08.672Z,4.07
2023-04-10T09:55:37.542Z,2.70
2023-04-10T09:58:06.978Z,2.85
2023-04-10T10:00:42.623Z,1.88
2023-04-10T10:03:14.876Z,1.40
2023-04-10T10:05:45.844Z,1.50
2023-04-10T10:08:16.266Z,2.17
2023-04-10T10:10:48.169Z,3.15
2023-04-10T10:13:21.869Z,1.70
2023-04-10T10:15:58.610Z,3.65
2023-04-10T10:18:36.765Z,1.00
2023-04-10T10:21:06.570Z,1.40
2023-04-10T10:23:35.476Z,1.35
2023-04-10T10:26:07.139Z,1.10
2023-04-10T10:28:37.196Z,1.75
2023-04-10T10:31:06.240Z,1.65
2023-04-10T10:33:37.848Z,1.80
2023-04-10T10:36:07.611Z,2.13
2023-04-10T10:38:39.724Z,2.75
2023-04-10T10:41:18.948Z,5.47
2023-04-10T10:43:56.220Z,2.53
2023-04-10T10:46:34.324Z,3.50
2023-04-10T10:49:04.662Z,3.53
2023-04-10T10:51:51.288Z,3.38
2023-04-10T10:54:30.217Z,2.20
2023-04-10T10:56:59.109Z,7.60
2023-04-10T10:59:56.163Z,10.60
2023-04-10T11:02:25.200Z,5.07
2023-04-10T11:04:55.429Z,9.18
2023-04-10T11:08:08.752Z,6.25
2023-04-10T11:11:11.162Z,9.38
2023-04-10T11:13:41.345Z,6.50
2023-04-10T11:16:13.762Z,4.35
2023-04-10T11:19:15.366Z,2.47
2023-04-10T11:22:11.015Z,1.60
2023-04-10T11:24:59.119Z,2.72
2023-04-10T11:27:54.127Z,3.85
2023-04-10T11:30:36.862Z,2.53
2023-04-10T11:33:06.836Z,1.35
2023-04-10T11:35:35.512Z,1.83
2023-04-10T11:38:13.534Z,1.13
2023-04-10T11:41:07.159Z,2.05
2023-04-10T11:43:36.264Z,2.25
2023-04-10T11:46:08.026Z,1.38
2023-04-10T11:48:38.048Z,1.33
2023-04-10T11:51:11.744Z,1.50
2023-04-10T11:53:42.817Z,6.53
2023-04-10T11:56:19.416Z,8.50
2023-04-10T12:01:17.083Z,3.17
2023-04-10T12:03:46.531Z,1.02
2023-04-10T12:06:16.196Z,1.63
2023-04-10T12:08:51.330Z,2.65
2023-04-10T12:11:20.927Z,3.28
2023-04-10T12:13:52.416Z,2.08
2023-04-10T12:16:21.808Z,1.65
2023-04-10T12:18:51.023Z,1.52
2023-04-10T12:21:19.758Z,2.13
2023-04-10T12:23:49.834Z,1.52
2023-04-10T12:26:19.346Z,1.13
2023-04-10T12:28:53.381Z,1.38
2023-04-10T12:31:28.709Z,0.93
2023-04-10T12:33:58.319Z,1.10
2023-04-10T12:36:30.301Z,5.25
2023-04-10T12:39:02.064Z,2.58
2023-04-10T12:41:32.668Z,1.10
2023-04-10T12:44:12.011Z,1.88
2023-04-10T12:46:41.615Z,2.47
2023-04-10T12:49:11.882Z,2.45
2023-04-10T12:51:47.299Z,3.42
2023-04-10T12:54:34.571Z,1.10
2023-04-10T12:57:05.008Z,1.52
2023-04-10T12:59:34.033Z,0.80
2023-04-10T13:02:02.651Z,1.08
2023-04-10T13:04:32.835Z,1.27
2023-04-10T13:07:01.781Z,1.05
2023-04-10T13:09:32.041Z,0.70
2023-04-10T13:12:00.665Z,0.73
2023-04-10T13:14:29.123Z,0.80
2023-04-10T13:16:57.649Z,1.10
2023-04-10T13:19:26.160Z,1.08
2023-04-10T13:21:54.874Z,0.90
2023-04-10T13:24:23.392Z,2.15
2023-04-10T13:26:54.222Z,0.70
2023-04-10T13:29:22.785Z,0.70
2023-04-10T13:31:51.279Z,1.90
2023-04-10T13:34:20.038Z,1.38
2023-04-10T13:36:49.333Z,0.95
2023-04-10T13:39:19.017Z,2.10
2023-04-10T13:41:49.310Z,1.02
2023-04-10T13:44:19.334Z,0.57
2023-04-10T13:46:48.013Z,1.35
2023-04-10T13:49:20.689Z,0.52
2023-04-10T13:51:49.485Z,1.10
2023-04-10T13:54:18.088Z,0.63
2023-04-10T13:56:47.258Z,1.10
2023-04-10T13:59:15.851Z,0.70
2023-04-10T14:01:45.967Z,0.82
2023-04-10T14:04:14.514Z,0.93
2023-04-10T14:06:43.066Z,0.98
2023-04-10T14:09:11.646Z,0.88
2023-04-10T14:11:40.176Z,1.13
2023-04-10T14:14:08.949Z,3.30
2023-04-10T14:16:37.620Z,1.35
2023-04-10T14:19:07.748Z,1.75
2023-04-10T14:21:36.675Z,0.95
2023-04-10T14:24:05.271Z,1.05
2023-04-10T14:26:33.820Z,1.08
2023-04-10T14:29:02.336Z,2.20
2023-04-10T14:31:30.947Z,1.00
2023-04-10T14:33:59.461Z,1.20
2023-04-10T14:36:29.582Z,1.48
2023-04-10T14:38:58.103Z,2.38
2023-04-10T14:41:26.911Z,1.48
2023-04-10T14:43:55.507Z,2.05
2023-04-10T14:46:25.789Z,1.75
2023-04-10T14:48:54.381Z,0.90
2023-04-10T14:51:22.778Z,1.33
2023-04-10T14:53:53.206Z,1.00
2023-04-10T14:56:21.996Z,1.77
2023-04-10T14:58:50.523Z,1.08
2023-04-10T15:01:19.190Z,2.45
2023-04-10T15:03:49.193Z,0.98
2023-04-10T15:06:18.096Z,1.25
2023-04-10T15:08:46.642Z,2.47
2023-04-10T15:11:16.738Z,1.25
2023-04-10T15:13:48.431Z,1.38
2023-04-10T15:16:17.119Z,1.92
2023-04-10T15:18:48.887Z,1.15
2023-04-10T15:21:17.756Z,1.20
2023-04-10T15:23:46.195Z,1.05
2023-04-10T15:26:16.436Z,0.90
2023-04-10T15:28:45.451Z,2.00
2023-04-10T15:31:14.003Z,1.00
2023-04-10T15:33:42.605Z,1.27
2023-04-10T15:36:11.639Z,1.20
2023-04-10T15:38:40.298Z,1.67
2023-04-10T15:41:10.498Z,2.75
2023-04-10T15:43:40.537Z,1.88
2023-04-10T15:46:09.361Z,1.70
2023-04-10T15:48:37.768Z,1.45
2023-04-10T15:51:07.221Z,1.20
2023-04-10T15:53:36.143Z,1.13
2023-04-10T15:56:06.242Z,1.95
2023-04-10T15:58:34.906Z,1.58
2023-04-10T16:01:05.786Z,1.60
2023-04-10T16:03:34.940Z,1.13
2023-04-10T16:06:03.634Z,2.10
2023-04-10T16:08:32.306Z,2.00
2023-04-10T16:11:00.751Z,1.60
2023-04-10T16:13:29.376Z,1.58
2023-04-10T16:15:58.732Z,1.80
2023-04-10T16:18:29.415Z,2.08
2023-04-10T16:20:57.976Z,3.83
2023-04-10T16:23:26.536Z,2.42
2023-04-10T16:25:55.227Z,2.58
2023-04-10T16:28:23.650Z,1.30
2023-04-10T16:30:52.388Z,4.25
2023-04-10T16:33:21.167Z,2.67
2023-04-10T16:35:54.963Z,1.75
2023-04-10T16:38:26.780Z,2.33
2023-04-10T16:40:55.216Z,1.55
2023-04-10T16:43:24.855Z,1.75
2023-04-10T16:45:56.316Z,1.35
2023-04-10T16:48:25.289Z,1.60
2023-04-10T16:50:55.399Z,2.03
2023-04-10T16:53:23.988Z,1.20
2023-04-10T16:55:59.661Z,3.40
2023-04-10T16:58:29.654Z,1.23
2023-04-10T17:00:59.171Z,1.90
2023-04-10T17:03:27.615Z,1.50
2023-04-10T17:05:57.184Z,1.70
2023-04-10T17:08:25.297Z,2.28
2023-04-10T17:10:53.424Z,1.70
2023-04-10T17:13:21.430Z,2.20
2023-04-10T17:15:49.565Z,1.30
2023-04-10T17:18:20.249Z,1.80
2023-04-10T17:20:48.519Z,3.45
2023-04-10T17:23:18.291Z,2.03
2023-04-10T17:25:46.466Z,1.30
2023-04-10T17:28:14.680Z,2.30
2023-04-10T17:30:43.949Z,1.80
2023-04-10T17:33:12.277Z,4.25
2023-04-10T17:35:40.414Z,2.75
2023-04-10T17:38:08.582Z,3.55
2023-04-10T17:40:41.233Z,3.20
2023-04-10T17:43:09.365Z,2.63
2023-04-10T17:45:37.928Z,2.20
2023-04-10T17:48:06.963Z,3.25
2023-04-10T17:50:35.539Z,2.20
2023-04-10T17:53:03.616Z,3.65
2023-04-10T17:55:31.791Z,2.67
2023-04-10T17:58:01.308Z,3.25
2023-04-10T18:00:29.814Z,3.78
2023-04-10T18:03:01.549Z,3.85
2023-04-10T18:05:29.932Z,4.97
2023-04-10T18:07:58.069Z,4.45
2023-04-10T18:10:26.280Z,5.57
2023-04-10T18:12:57.043Z,5.28
2023-04-10T18:15:27.104Z,7.03
2023-04-10T18:17:55.722Z,6.20
2023-04-10T18:20:24.174Z,5.65
2023-04-10T18:22:52.273Z,6.15
2023-04-10T18:25:20.614Z,3.25
2023-04-10T18:28:09.577Z,6.30
2023-04-10T18:30:39.388Z,5.30
2023-04-10T18:33:10.905Z,7.28
2023-04-10T18:35:39.840Z,4.75
2023-04-10T18:38:07.921Z,8.90
2023-04-10T18:40:37.133Z,6.28
2023-04-10T18:43:05.314Z,5.90
2023-04-10T18:45:35.182Z,6.53
2023-04-10T18:48:04.965Z,5.38
2023-04-10T18:50:35.845Z,6.47
2023-04-10T18:53:03.881Z,6.28
2023-04-10T18:55:31.914Z,6.28
2023-04-10T18:58:00.426Z,11.55
2023-04-10T19:00:28.793Z,9.15
2023-04-10T19:02:57.272Z,12.10
2023-04-10T19:05:26.913Z,10.27
2023-04-10T19:08:03.587Z,8.25
2023-04-10T19:10:33.400Z,6.80
2023-04-10T19:13:01.539Z,6.18
2023-04-10T19:15:29.796Z,5.78
2023-04-10T19:17:57.938Z,5.88
2023-04-10T19:20:50.789Z,4.07
2023-04-10T19:23:17.441Z,5.63
2023-04-10T19:25:45.819Z,4.82
2023-04-10T19:28:14.688Z,5.22
2023-04-10T19:30:42.706Z,5.30
2023-04-10T19:33:12.948Z,10.52
2023-04-10T19:35:42.869Z,6.43
2023-04-10T19:38:11.473Z,5.72
2023-04-10T19:40:39.572Z,5.43
2023-04-10T19:43:08.874Z,5.82
2023-04-10T19:45:38.376Z,4.15
2023-04-10T19:48:10.073Z,5.70
2023-04-10T19:50:39.301Z,5.80
2023-04-10T19:53:13.156Z,5.07
2023-04-10T19:55:41.436Z,7.60
2023-04-10T19:58:13.437Z,6.20
2023-04-10T20:00:55.828Z,9.13
2023-04-10T20:03:27.708Z,8.73
2023-04-10T20:06:00.457Z,6.63
2023-04-10T20:08:30.681Z,8.43
2023-04-10T20:10:59.387Z,7.28
2023-04-10T20:13:27.391Z,9.10
2023-04-10T20:15:56.694Z,6.80
2023-04-10T20:18:29.109Z,9.13
2023-04-10T20:20:58.061Z,7.50
2023-04-10T20:23:26.707Z,5.60
2023-04-10T20:25:56.450Z,5.65
2023-04-10T20:28:25.757Z,6.13
2023-04-10T20:30:54.661Z,4.15
2023-04-10T20:33:24.766Z,4.20
2023-04-10T20:35:53.724Z,4.03
2023-04-10T20:38:22.264Z,3.35
2023-04-10T20:40:50.342Z,5.30
2023-04-10T20:43:20.131Z,4.13
2023-04-10T20:45:48.414Z,4.32
2023-04-10T20:48:16.453Z,5.43
2023-04-10T20:50:45.586Z,5.85
2023-04-10T20:53:13.763Z,5.40
2023-04-10T20:55:42.036Z,5.45
2023-04-10T20:58:10.356Z,6.93
2023-04-10T21:00:41.341Z,5.22
2023-04-10T21:03:09.868Z,4.45
2023-04-10T21:05:41.311Z,5.85
2023-04-10T21:08:09.990Z,6.50
2023-04-10T21:10:44.230Z,5.55
2023-04-10T21:13:14.347Z,5.45
2023-04-10T21:15:44.121Z,6.78
2023-04-10T21:18:12.677Z,7.75
2023-04-10T21:20:41.167Z,7.47
2023-04-10T21:23:09.185Z,8.73
2023-04-10T21:25:38.720Z,6.95
2023-04-10T21:28:06.801Z,4.35
2023-04-10T21:30:34.993Z,4.05
2023-04-10T21:33:04.615Z,4.55
2023-04-10T21:35:33.369Z,3.28
2023-04-10T21:38:02.343Z,5.13
2023-04-10T21:40:37.146Z,5.53
2023-04-10T21:43:05.748Z,2.65
2023-04-10T21:45:35.012Z,3.53
2023-04-10T21:48:04.854Z,3.78
2023-04-10T21:50:32.889Z,2.47
2023-04-10T21:53:00.928Z,3.00
2023-04-10T21:55:29.058Z,2.78
2023-04-10T21:57:57.413Z,2.88
2023-04-10T22:00:25.478Z,3.08
2023-04-10T22:02:53.737Z,4.25
2023-04-10T22:05:24.639Z,3.53
2023-04-10T22:07:53.029Z,4.28
2023-04-10T22:10:21.013Z,2.97
2023-04-10T22:12:49.679Z,3.72
2023-04-10T22:15:18.358Z,3.42
2023-04-10T22:17:46.710Z,2.53
2023-04-10T22:20:15.986Z,3.25
2023-04-10T22:22:45.945Z,3.67
2023-04-10T22:25:14.415Z,2.85
2023-04-10T22:27:42.678Z,4.38
2023-04-10T22:30:12.318Z,4.53
2023-04-10T22:32:40.729Z,3.60
2023-04-10T22:35:09.647Z,4.38
2023-04-10T22:37:37.987Z,3.40
2023-04-10T22:40:09.518Z,4.25
2023-04-10T22:42:38.252Z,3.13
2023-04-10T22:45:07.716Z,3.75
2023-04-10T22:47:36.114Z,3.38
2023-04-10T22:50:04.565Z,4.68
2023-04-10T22:52:32.767Z,4.93
2023-04-10T22:55:01.172Z,3.75
2023-04-10T22:57:30.771Z,5.40
2023-04-10T23:00:00.507Z,4.03
2023-04-10T23:02:29.013Z,4.88
2023-04-10T23:08:45.310Z,3.60
2023-04-10T23:11:13.354Z,4.18
2023-04-10T23:13:44.185Z,2.70
2023-04-10T23:16:12.541Z,3.25
2023-04-10T23:18:40.696Z,3.67
2023-04-10T23:21:12.358Z,4.45
2023-04-10T23:23:40.638Z,3.85
2023-04-10T23:26:08.958Z,5.38
2023-04-10T23:28:37.238Z,5.88
2023-04-10T23:31:07.629Z,4.53
2023-04-10T23:33:35.937Z,4.72
2023-04-10T23:36:04.201Z,6.10
2023-04-10T23:38:32.450Z,4.10
